sensor_id;sensor_type;location;lat;lon;timestamp;P1;durP1;ratioP1;P2;durP2;ratioP2
51814;SDS011;37874;53.158;6.766;2022-12-07T00:00:26;2.47;;;1.38;;
51814;SDS011;37874;53.158;6.766;2022-12-07T00:03:10;3.38;;;1.58;;
51814;SDS011;37874;53.158;6.766;2022-12-07T00:05:36;3.92;;;1.40;;
51814;SDS011;37874;53.158;6.766;2022-12-07T00:14:10;4.55;;;1.50;;
51814;SDS011;37874;53.158;6.766;2022-12-07T00:16:56;2.90;;;1.35;;
51814;SDS011;37874;53.158;6.766;2022-12-07T00:19:40;3.23;;;1.27;;
51814;SDS011;37874;53.158;6.766;2022-12-07T00:22:24;3.93;;;1.53;;
51814;SDS011;37874;53.158;6.766;2022-12-07T00:24:51;3.45;;;1.70;;
51814;SDS011;37874;53.158;6.766;2022-12-07T00:27:16;3.78;;;1.70;;
51814;SDS011;37874;53.158;6.766;2022-12-07T00:29:42;3.33;;;1.55;;
51814;SDS011;37874;53.158;6.766;2022-12-07T00:32:08;2.75;;;1.45;;
51814;SDS011;37874;53.158;6.766;2022-12-07T00:34:34;5.22;;;1.23;;
51814;SDS011;37874;53.158;6.766;2022-12-07T00:37:00;3.50;;;1.40;;
51814;SDS011;37874;53.158;6.766;2022-12-07T00:39:28;4.20;;;1.33;;
51814;SDS011;37874;53.158;6.766;2022-12-07T00:41:54;2.35;;;1.13;;
51814;SDS011;37874;53.158;6.766;2022-12-07T00:44:20;3.45;;;1.35;;
51814;SDS011;37874;53.158;6.766;2022-12-07T00:46:46;3.38;;;1.30;;
51814;SDS011;37874;53.158;6.766;2022-12-07T00:49:12;3.65;;;1.48;;
51814;SDS011;37874;53.158;6.766;2022-12-07T00:51:38;4.38;;;1.38;;
51814;SDS011;37874;53.158;6.766;2022-12-07T00:54:04;3.15;;;1.40;;
51814;SDS011;37874;53.158;6.766;2022-12-07T00:56:30;2.97;;;1.35;;
51814;SDS011;37874;53.158;6.766;2022-12-07T00:58:56;2.90;;;1.27;;
51814;SDS011;37874;53.158;6.766;2022-12-07T01:01:25;2.05;;;1.00;;
51814;SDS011;37874;53.158;6.766;2022-12-07T01:03:53;2.72;;;1.13;;
51814;SDS011;37874;53.158;6.766;2022-12-07T01:06:20;3.50;;;1.20;;
51814;SDS011;37874;53.158;6.766;2022-12-07T01:08:48;2.92;;;1.20;;
51814;SDS011;37874;53.158;6.766;2022-12-07T01:11:15;2.95;;;1.10;;
51814;SDS011;37874;53.158;6.766;2022-12-07T01:13:46;3.70;;;1.20;;
51814;SDS011;37874;53.158;6.766;2022-12-07T01:16:14;3.60;;;1.23;;
51814;SDS011;37874;53.158;6.766;2022-12-07T01:18:41;2.17;;;1.23;;
51814;SDS011;37874;53.158;6.766;2022-12-07T01:21:11;2.53;;;1.20;;
51814;SDS011;37874;53.158;6.766;2022-12-07T01:23:43;2.90;;;1.10;;
51814;SDS011;37874;53.158;6.766;2022-12-07T01:26:10;3.40;;;1.13;;
51814;SDS011;37874;53.158;6.766;2022-12-07T01:28:38;2.50;;;0.93;;
51814;SDS011;37874;53.158;6.766;2022-12-07T01:31:06;2.25;;;0.90;;
51814;SDS011;37874;53.158;6.766;2022-12-07T01:33:35;3.60;;;0.93;;
51814;SDS011;37874;53.158;6.766;2022-12-07T01:36:03;2.13;;;0.90;;
51814;SDS011;37874;53.158;6.766;2022-12-07T01:38:30;2.00;;;0.80;;
51814;SDS011;37874;53.158;6.766;2022-12-07T01:40:57;2.22;;;1.00;;
51814;SDS011;37874;53.158;6.766;2022-12-07T01:43:25;3.25;;;1.13;;
51814;SDS011;37874;53.158;6.766;2022-12-07T01:45:52;3.10;;;1.20;;
51814;SDS011;37874;53.158;6.766;2022-12-07T01:48:20;2.42;;;0.98;;
51814;SDS011;37874;53.158;6.766;2022-12-07T01:51:08;2.92;;;1.10;;
51814;SDS011;37874;53.158;6.766;2022-12-07T01:53:38;4.45;;;1.20;;
51814;SDS011;37874;53.158;6.766;2022-12-07T01:56:08;2.70;;;1.08;;
51814;SDS011;37874;53.158;6.766;2022-12-07T01:58:39;6.03;;;1.50;;
51814;SDS011;37874;53.158;6.766;2022-12-07T02:01:04;3.08;;;1.00;;
51814;SDS011;37874;53.158;6.766;2022-12-07T02:03:35;3.50;;;0.90;;
51814;SDS011;37874;53.158;6.766;2022-12-07T02:06:07;1.55;;;0.82;;
51814;SDS011;37874;53.158;6.766;2022-12-07T02:08:34;2.45;;;0.80;;
51814;SDS011;37874;53.158;6.766;2022-12-07T02:11:01;2.38;;;0.80;;
51814;SDS011;37874;53.158;6.766;2022-12-07T02:13:30;2.75;;;0.80;;
51814;SDS011;37874;53.158;6.766;2022-12-07T02:16:09;2.60;;;0.73;;
51814;SDS011;37874;53.158;6.766;2022-12-07T02:21:58;2.05;;;0.80;;
51814;SDS011;37874;53.158;6.766;2022-12-07T02:30:52;3.53;;;1.10;;
51814;SDS011;37874;53.158;6.766;2022-12-07T02:33:28;2.70;;;0.73;;
51814;SDS011;37874;53.158;6.766;2022-12-07T02:36:12;2.42;;;0.70;;
51814;SDS011;37874;53.158;6.766;2022-12-07T02:39:03;2.37;;;0.80;;
51814;SDS011;37874;53.158;6.766;2022-12-07T02:41:38;2.90;;;0.88;;
51814;SDS011;37874;53.158;6.766;2022-12-07T02:44:10;4.43;;;0.93;;
51814;SDS011;37874;53.158;6.766;2022-12-07T02:46:42;2.13;;;0.70;;
51814;SDS011;37874;53.158;6.766;2022-12-07T02:49:13;3.37;;;0.67;;
51814;SDS011;37874;53.158;6.766;2022-12-07T02:51:40;2.15;;;0.70;;
51814;SDS011;37874;53.158;6.766;2022-12-07T02:54:12;1.20;;;0.60;;
51814;SDS011;37874;53.158;6.766;2022-12-07T02:59:16;2.55;;;0.90;;
51814;SDS011;37874;53.158;6.766;2022-12-07T03:02:06;3.53;;;1.00;;
51814;SDS011;37874;53.158;6.766;2022-12-07T03:10:27;2.67;;;0.80;;
51814;SDS011;37874;53.158;6.766;2022-12-07T03:21:32;2.10;;;0.90;;
51814;SDS011;37874;53.158;6.766;2022-12-07T03:24:04;3.65;;;0.70;;
51814;SDS011;37874;53.158;6.766;2022-12-07T03:26:38;1.92;;;0.70;;
51814;SDS011;37874;53.158;6.766;2022-12-07T03:29:15;2.95;;;0.88;;
51814;SDS011;37874;53.158;6.766;2022-12-07T03:31:48;4.45;;;0.85;;
51814;SDS011;37874;53.158;6.766;2022-12-07T03:34:21;3.20;;;0.70;;
51814;SDS011;37874;53.158;6.766;2022-12-07T03:36:55;1.58;;;0.63;;
51814;SDS011;37874;53.158;6.766;2022-12-07T03:40:16;2.10;;;0.60;;
51814;SDS011;37874;53.158;6.766;2022-12-07T03:42:19;2.97;;;0.60;;
51814;SDS011;37874;53.158;6.766;2022-12-07T03:44:45;2.72;;;0.63;;
51814;SDS011;37874;53.158;6.766;2022-12-07T03:47:31;2.22;;;0.90;;
51814;SDS011;37874;53.158;6.766;2022-12-07T03:57:33;3.47;;;0.70;;
51814;SDS011;37874;53.158;6.766;2022-12-07T04:00:00;3.88;;;0.77;;
51814;SDS011;37874;53.158;6.766;2022-12-07T04:02:30;3.47;;;1.17;;
51814;SDS011;37874;53.158;6.766;2022-12-07T04:04:57;2.20;;;0.70;;
51814;SDS011;37874;53.158;6.766;2022-12-07T04:07:23;3.10;;;0.60;;
51814;SDS011;37874;53.158;6.766;2022-12-07T04:09:49;1.92;;;0.55;;
51814;SDS011;37874;53.158;6.766;2022-12-07T04:12:15;2.25;;;0.63;;
51814;SDS011;37874;53.158;6.766;2022-12-07T04:14:41;3.13;;;0.60;;
51814;SDS011;37874;53.158;6.766;2022-12-07T04:17:08;2.78;;;0.70;;
51814;SDS011;37874;53.158;6.766;2022-12-07T04:19:34;2.22;;;0.70;;
51814;SDS011;37874;53.158;6.766;2022-12-07T04:22:00;2.22;;;0.70;;
51814;SDS011;37874;53.158;6.766;2022-12-07T04:24:27;2.42;;;0.80;;
51814;SDS011;37874;53.158;6.766;2022-12-07T04:26:54;2.08;;;0.80;;
51814;SDS011;37874;53.158;6.766;2022-12-07T04:29:20;3.35;;;0.80;;
51814;SDS011;37874;53.158;6.766;2022-12-07T04:31:47;2.38;;;0.80;;
51814;SDS011;37874;53.158;6.766;2022-12-07T04:34:13;3.45;;;0.82;;
51814;SDS011;37874;53.158;6.766;2022-12-07T04:36:40;3.45;;;0.90;;
51814;SDS011;37874;53.158;6.766;2022-12-07T04:39:08;4.65;;;0.90;;
51814;SDS011;37874;53.158;6.766;2022-12-07T04:41:42;2.45;;;0.90;;
51814;SDS011;37874;53.158;6.766;2022-12-07T04:44:08;3.08;;;0.60;;
51814;SDS011;37874;53.158;6.766;2022-12-07T04:46:37;1.60;;;0.73;;
51814;SDS011;37874;53.158;6.766;2022-12-07T04:49:03;1.70;;;0.65;;
51814;SDS011;37874;53.158;6.766;2022-12-07T04:51:28;3.03;;;0.80;;
51814;SDS011;37874;53.158;6.766;2022-12-07T04:53:55;2.83;;;0.63;;
51814;SDS011;37874;53.158;6.766;2022-12-07T04:56:21;3.10;;;0.80;;
51814;SDS011;37874;53.158;6.766;2022-12-07T04:58:48;3.88;;;0.90;;
51814;SDS011;37874;53.158;6.766;2022-12-07T05:01:15;3.50;;;0.75;;
51814;SDS011;37874;53.158;6.766;2022-12-07T05:03:42;2.28;;;0.60;;
51814;SDS011;37874;53.158;6.766;2022-12-07T05:06:08;2.70;;;0.60;;
51814;SDS011;37874;53.158;6.766;2022-12-07T05:08:35;2.10;;;0.60;;
51814;SDS011;37874;53.158;6.766;2022-12-07T05:11:02;2.42;;;0.68;;
51814;SDS011;37874;53.158;6.766;2022-12-07T05:13:29;1.50;;;0.60;;
51814;SDS011;37874;53.158;6.766;2022-12-07T05:15:55;1.98;;;0.50;;
51814;SDS011;37874;53.158;6.766;2022-12-07T05:18:21;2.03;;;0.70;;
51814;SDS011;37874;53.158;6.766;2022-12-07T05:20:47;1.40;;;0.50;;
51814;SDS011;37874;53.158;6.766;2022-12-07T05:23:13;2.33;;;0.68;;
51814;SDS011;37874;53.158;6.766;2022-12-07T05:25:38;2.05;;;0.70;;
51814;SDS011;37874;53.158;6.766;2022-12-07T05:28:04;1.55;;;0.50;;
51814;SDS011;37874;53.158;6.766;2022-12-07T05:30:31;3.42;;;0.60;;
51814;SDS011;37874;53.158;6.766;2022-12-07T05:32:57;2.47;;;0.60;;
51814;SDS011;37874;53.158;6.766;2022-12-07T05:35:23;3.45;;;0.60;;
51814;SDS011;37874;53.158;6.766;2022-12-07T05:37:49;1.88;;;0.70;;
51814;SDS011;37874;53.158;6.766;2022-12-07T05:40:15;1.90;;;0.95;;
51814;SDS011;37874;53.158;6.766;2022-12-07T05:42:42;3.25;;;0.80;;
51814;SDS011;37874;53.158;6.766;2022-12-07T05:45:10;1.70;;;0.60;;
51814;SDS011;37874;53.158;6.766;2022-12-07T05:47:36;2.40;;;0.70;;
51814;SDS011;37874;53.158;6.766;2022-12-07T05:50:03;2.50;;;0.75;;
51814;SDS011;37874;53.158;6.766;2022-12-07T05:52:30;1.55;;;0.52;;
51814;SDS011;37874;53.158;6.766;2022-12-07T05:54:56;1.67;;;0.60;;
51814;SDS011;37874;53.158;6.766;2022-12-07T05:57:22;2.85;;;0.70;;
51814;SDS011;37874;53.158;6.766;2022-12-07T05:59:48;3.03;;;0.50;;
51814;SDS011;37874;53.158;6.766;2022-12-07T06:02:14;3.00;;;0.75;;
51814;SDS011;37874;53.158;6.766;2022-12-07T06:04:42;2.10;;;0.50;;
51814;SDS011;37874;53.158;6.766;2022-12-07T06:07:10;1.60;;;0.60;;
51814;SDS011;37874;53.158;6.766;2022-12-07T06:09:37;2.30;;;0.70;;
51814;SDS011;37874;53.158;6.766;2022-12-07T06:12:04;2.67;;;0.60;;
51814;SDS011;37874;53.158;6.766;2022-12-07T06:14:49;2.55;;;0.80;;
51814;SDS011;37874;53.158;6.766;2022-12-07T06:17:16;2.38;;;0.70;;
51814;SDS011;37874;53.158;6.766;2022-12-07T06:19:42;2.30;;;0.90;;
51814;SDS011;37874;53.158;6.766;2022-12-07T06:22:08;4.57;;;0.93;;
51814;SDS011;37874;53.158;6.766;2022-12-07T06:24:35;2.83;;;0.88;;
51814;SDS011;37874;53.158;6.766;2022-12-07T06:27:01;4.75;;;0.80;;
51814;SDS011;37874;53.158;6.766;2022-12-07T06:29:27;3.85;;;0.95;;
51814;SDS011;37874;53.158;6.766;2022-12-07T06:31:53;3.28;;;0.93;;
51814;SDS011;37874;53.158;6.766;2022-12-07T06:34:20;3.90;;;1.05;;
51814;SDS011;37874;53.158;6.766;2022-12-07T06:36:48;2.65;;;0.80;;
51814;SDS011;37874;53.158;6.766;2022-12-07T06:39:34;3.20;;;0.70;;
51814;SDS011;37874;53.158;6.766;2022-12-07T06:42:00;1.73;;;0.68;;
51814;SDS011;37874;53.158;6.766;2022-12-07T06:53:35;4.20;;;0.70;;
51814;SDS011;37874;53.158;6.766;2022-12-07T06:59:23;2.10;;;0.70;;
51814;SDS011;37874;53.158;6.766;2022-12-07T07:02:27;3.38;;;0.98;;
51814;SDS011;37874;53.158;6.766;2022-12-07T07:04:52;3.38;;;0.93;;
51814;SDS011;37874;53.158;6.766;2022-12-07T07:07:56;4.28;;;0.88;;
51814;SDS011;37874;53.158;6.766;2022-12-07T07:10:59;4.45;;;0.90;;
51814;SDS011;37874;53.158;6.766;2022-12-07T07:13:44;2.85;;;0.70;;
51814;SDS011;37874;53.158;6.766;2022-12-07T07:16:29;3.70;;;0.60;;
51814;SDS011;37874;53.158;6.766;2022-12-07T07:19:14;3.25;;;0.70;;
51814;SDS011;37874;53.158;6.766;2022-12-07T07:25:21;3.92;;;1.00;;
51814;SDS011;37874;53.158;6.766;2022-12-07T07:28:05;2.88;;;0.93;;
51814;SDS011;37874;53.158;6.766;2022-12-07T07:31:09;1.67;;;0.60;;
51814;SDS011;37874;53.158;6.766;2022-12-07T07:37:15;2.65;;;1.00;;
51814;SDS011;37874;53.158;6.766;2022-12-07T07:43:21;1.98;;;0.63;;
51814;SDS011;37874;53.158;6.766;2022-12-07T07:46:06;4.30;;;1.23;;
51814;SDS011;37874;53.158;6.766;2022-12-07T07:58:01;1.58;;;0.60;;
51814;SDS011;37874;53.158;6.766;2022-12-07T08:01:04;2.78;;;0.90;;
51814;SDS011;37874;53.158;6.766;2022-12-07T08:10:14;2.72;;;1.00;;
51814;SDS011;37874;53.158;6.766;2022-12-07T08:15:44;2.75;;;0.70;;
51814;SDS011;37874;53.158;6.766;2022-12-07T08:21:33;2.20;;;0.77;;
51814;SDS011;37874;53.158;6.766;2022-12-07T08:23:59;3.15;;;1.23;;
51814;SDS011;37874;53.158;6.766;2022-12-07T08:30:06;4.10;;;1.30;;
51814;SDS011;37874;53.158;6.766;2022-12-07T08:32:51;3.25;;;1.55;;
51814;SDS011;37874;53.158;6.766;2022-12-07T08:38:57;2.10;;;0.90;;
51814;SDS011;37874;53.158;6.766;2022-12-07T08:41:42;2.80;;;1.10;;
51814;SDS011;37874;53.158;6.766;2022-12-07T08:44:45;3.05;;;1.00;;
51814;SDS011;37874;53.158;6.766;2022-12-07T08:47:11;2.22;;;0.98;;
51814;SDS011;37874;53.158;6.766;2022-12-07T08:49:40;1.98;;;0.80;;
51814;SDS011;37874;53.158;6.766;2022-12-07T08:52:10;1.73;;;0.70;;
51814;SDS011;37874;53.158;6.766;2022-12-07T08:54:36;2.40;;;0.90;;
51814;SDS011;37874;53.158;6.766;2022-12-07T08:57:04;4.40;;;1.30;;
51814;SDS011;37874;53.158;6.766;2022-12-07T08:59:32;5.03;;;1.35;;
51814;SDS011;37874;53.158;6.766;2022-12-07T09:01:59;3.28;;;1.40;;
51814;SDS011;37874;53.158;6.766;2022-12-07T09:04:25;4.10;;;1.13;;
51814;SDS011;37874;53.158;6.766;2022-12-07T09:06:53;2.90;;;1.20;;
51814;SDS011;37874;53.158;6.766;2022-12-07T09:09:20;2.47;;;1.23;;
51814;SDS011;37874;53.158;6.766;2022-12-07T09:11:46;2.47;;;0.88;;
51814;SDS011;37874;53.158;6.766;2022-12-07T09:14:13;3.45;;;1.00;;
51814;SDS011;37874;53.158;6.766;2022-12-07T09:16:39;3.40;;;1.20;;
51814;SDS011;37874;53.158;6.766;2022-12-07T09:19:05;4.38;;;1.30;;
51814;SDS011;37874;53.158;6.766;2022-12-07T09:21:32;2.47;;;1.05;;
51814;SDS011;37874;53.158;6.766;2022-12-07T09:23:58;2.78;;;1.20;;
51814;SDS011;37874;53.158;6.766;2022-12-07T09:26:24;2.58;;;0.90;;
51814;SDS011;37874;53.158;6.766;2022-12-07T09:28:50;2.95;;;1.13;;
51814;SDS011;37874;53.158;6.766;2022-12-07T09:31:15;2.97;;;0.90;;
51814;SDS011;37874;53.158;6.766;2022-12-07T09:33:41;2.60;;;0.80;;
51814;SDS011;37874;53.158;6.766;2022-12-07T09:36:07;3.92;;;1.17;;
51814;SDS011;37874;53.158;6.766;2022-12-07T09:38:34;2.45;;;0.90;;
51814;SDS011;37874;53.158;6.766;2022-12-07T09:41:04;2.83;;;1.15;;
51814;SDS011;37874;53.158;6.766;2022-12-07T09:43:32;2.72;;;0.98;;
51814;SDS011;37874;53.158;6.766;2022-12-07T09:45:59;3.42;;;0.98;;
51814;SDS011;37874;53.158;6.766;2022-12-07T09:48:29;2.92;;;0.90;;
51814;SDS011;37874;53.158;6.766;2022-12-07T09:50:57;3.17;;;1.00;;
51814;SDS011;37874;53.158;6.766;2022-12-07T09:53:27;3.92;;;1.20;;
51814;SDS011;37874;53.158;6.766;2022-12-07T09:56:01;2.22;;;0.98;;
51814;SDS011;37874;53.158;6.766;2022-12-07T09:58:28;3.88;;;0.93;;
51814;SDS011;37874;53.158;6.766;2022-12-07T10:00:57;4.20;;;0.98;;
51814;SDS011;37874;53.158;6.766;2022-12-07T10:03:27;3.17;;;1.00;;
51814;SDS011;37874;53.158;6.766;2022-12-07T10:05:54;2.33;;;0.93;;
51814;SDS011;37874;53.158;6.766;2022-12-07T10:08:20;3.25;;;1.13;;
51814;SDS011;37874;53.158;6.766;2022-12-07T10:10:49;2.53;;;1.00;;
51814;SDS011;37874;53.158;6.766;2022-12-07T10:13:21;4.10;;;1.00;;
51814;SDS011;37874;53.158;6.766;2022-12-07T10:15:58;2.75;;;0.85;;
51814;SDS011;37874;53.158;6.766;2022-12-07T10:18:32;1.85;;;0.65;;
51814;SDS011;37874;53.158;6.766;2022-12-07T10:23:39;3.42;;;0.90;;
51814;SDS011;37874;53.158;6.766;2022-12-07T10:26:19;3.92;;;1.23;;
51814;SDS011;37874;53.158;6.766;2022-12-07T10:28:50;2.15;;;0.80;;
51814;SDS011;37874;53.158;6.766;2022-12-07T10:31:17;2.38;;;0.80;;
51814;SDS011;37874;53.158;6.766;2022-12-07T10:33:49;1.67;;;0.80;;
51814;SDS011;37874;53.158;6.766;2022-12-07T10:38:53;2.25;;;1.10;;
51814;SDS011;37874;53.158;6.766;2022-12-07T10:41:25;2.10;;;0.80;;
51814;SDS011;37874;53.158;6.766;2022-12-07T10:43:52;2.67;;;0.90;;
51814;SDS011;37874;53.158;6.766;2022-12-07T10:52:00;2.30;;;0.90;;
51814;SDS011;37874;53.158;6.766;2022-12-07T10:54:35;2.90;;;0.82;;
51814;SDS011;37874;53.158;6.766;2022-12-07T11:11:05;2.72;;;0.85;;
51814;SDS011;37874;53.158;6.766;2022-12-07T11:16:46;2.58;;;0.80;;
51814;SDS011;37874;53.158;6.766;2022-12-07T11:19:24;3.72;;;1.00;;
51814;SDS011;37874;53.158;6.766;2022-12-07T11:22:09;3.22;;;0.90;;
51814;SDS011;37874;53.158;6.766;2022-12-07T11:30:13;2.00;;;0.75;;
51814;SDS011;37874;53.158;6.766;2022-12-07T11:33:03;1.77;;;0.60;;
51814;SDS011;37874;53.158;6.766;2022-12-07T11:38:12;1.95;;;0.75;;
51814;SDS011;37874;53.158;6.766;2022-12-07T11:40:45;3.00;;;0.80;;
51814;SDS011;37874;53.158;6.766;2022-12-07T11:45:56;2.40;;;0.98;;
51814;SDS011;37874;53.158;6.766;2022-12-07T11:48:29;2.03;;;0.80;;
51814;SDS011;37874;53.158;6.766;2022-12-07T11:50:59;2.33;;;0.80;;
51814;SDS011;37874;53.158;6.766;2022-12-07T11:53:29;2.60;;;0.90;;
51814;SDS011;37874;53.158;6.766;2022-12-07T11:56:06;2.72;;;0.77;;
51814;SDS011;37874;53.158;6.766;2022-12-07T12:14:40;2.47;;;0.93;;
51814;SDS011;37874;53.158;6.766;2022-12-07T12:17:20;3.03;;;1.08;;
51814;SDS011;37874;53.158;6.766;2022-12-07T12:22:28;3.50;;;1.20;;
51814;SDS011;37874;53.158;6.766;2022-12-07T12:25:02;3.60;;;1.08;;
51814;SDS011;37874;53.158;6.766;2022-12-07T12:27:35;3.05;;;1.05;;
51814;SDS011;37874;53.158;6.766;2022-12-07T12:30:05;3.00;;;1.00;;
51814;SDS011;37874;53.158;6.766;2022-12-07T12:32:48;2.80;;;0.90;;
51814;SDS011;37874;53.158;6.766;2022-12-07T12:35:48;3.10;;;1.10;;
51814;SDS011;37874;53.158;6.766;2022-12-07T12:38:27;2.58;;;0.93;;
51814;SDS011;37874;53.158;6.766;2022-12-07T12:40:58;3.00;;;0.98;;
51814;SDS011;37874;53.158;6.766;2022-12-07T12:56:48;2.47;;;1.10;;
51814;SDS011;37874;53.158;6.766;2022-12-07T12:59:24;4.30;;;1.90;;
51814;SDS011;37874;53.158;6.766;2022-12-07T13:04:53;3.78;;;1.80;;
51814;SDS011;37874;53.158;6.766;2022-12-07T13:10:08;5.13;;;1.77;;
51814;SDS011;37874;53.158;6.766;2022-12-07T13:15:37;4.63;;;1.73;;
51814;SDS011;37874;53.158;6.766;2022-12-07T13:34:28;3.30;;;1.05;;
51814;SDS011;37874;53.158;6.766;2022-12-07T13:36:56;4.43;;;1.00;;
51814;SDS011;37874;53.158;6.766;2022-12-07T13:39:23;3.92;;;1.00;;
51814;SDS011;37874;53.158;6.766;2022-12-07T13:41:54;4.28;;;1.00;;
51814;SDS011;37874;53.158;6.766;2022-12-07T13:44:23;3.65;;;1.30;;
51814;SDS011;37874;53.158;6.766;2022-12-07T13:47:04;4.75;;;1.30;;
51814;SDS011;37874;53.158;6.766;2022-12-07T13:49:51;3.80;;;1.23;;
51814;SDS011;37874;53.158;6.766;2022-12-07T13:52:26;2.40;;;0.98;;
51814;SDS011;37874;53.158;6.766;2022-12-07T13:57:25;5.50;;;2.50;;
51814;SDS011;37874;53.158;6.766;2022-12-07T13:59:53;6.03;;;2.75;;
51814;SDS011;37874;53.158;6.766;2022-12-07T14:02:21;5.18;;;2.13;;
51814;SDS011;37874;53.158;6.766;2022-12-07T14:10:32;6.57;;;3.13;;
51814;SDS011;37874;53.158;6.766;2022-12-07T14:15:51;7.07;;;3.97;;
51814;SDS011;37874;53.158;6.766;2022-12-07T14:18:30;4.85;;;2.60;;
51814;SDS011;37874;53.158;6.766;2022-12-07T14:23:29;7.22;;;3.28;;
51814;SDS011;37874;53.158;6.766;2022-12-07T14:26:04;5.63;;;3.00;;
51814;SDS011;37874;53.158;6.766;2022-12-07T14:28:37;4.43;;;2.30;;
51814;SDS011;37874;53.158;6.766;2022-12-07T14:31:03;3.80;;;1.67;;
51814;SDS011;37874;53.158;6.766;2022-12-07T14:33:41;3.08;;;1.58;;
51814;SDS011;37874;53.158;6.766;2022-12-07T14:36:10;4.32;;;1.70;;
51814;SDS011;37874;53.158;6.766;2022-12-07T14:38:37;3.88;;;1.48;;
51814;SDS011;37874;53.158;6.766;2022-12-07T14:41:04;3.80;;;1.50;;
51814;SDS011;37874;53.158;6.766;2022-12-07T14:43:56;2.63;;;1.15;;
51814;SDS011;37874;53.158;6.766;2022-12-07T14:50:03;3.45;;;1.23;;
51814;SDS011;37874;53.158;6.766;2022-12-07T15:11:13;3.50;;;1.48;;
51814;SDS011;37874;53.158;6.766;2022-12-07T15:14:16;4.43;;;1.70;;
51814;SDS011;37874;53.158;6.766;2022-12-07T15:20:22;3.00;;;1.40;;
51814;SDS011;37874;53.158;6.766;2022-12-07T15:23:07;3.75;;;1.33;;
51814;SDS011;37874;53.158;6.766;2022-12-07T15:25:52;4.70;;;1.58;;
51814;SDS011;37874;53.158;6.766;2022-12-07T15:28:55;3.17;;;1.42;;
51814;SDS011;37874;53.158;6.766;2022-12-07T15:31:58;3.00;;;1.50;;
51814;SDS011;37874;53.158;6.766;2022-12-07T15:40:50;4.47;;;1.65;;
51814;SDS011;37874;53.158;6.766;2022-12-07T15:43:35;2.75;;;1.30;;
51814;SDS011;37874;53.158;6.766;2022-12-07T15:46:20;3.58;;;1.58;;
51814;SDS011;37874;53.158;6.766;2022-12-07T15:48:46;4.55;;;1.65;;
51814;SDS011;37874;53.158;6.766;2022-12-07T15:51:11;3.78;;;1.50;;
51814;SDS011;37874;53.158;6.766;2022-12-07T15:53:37;5.38;;;2.72;;
51814;SDS011;37874;53.158;6.766;2022-12-07T15:56:06;3.70;;;2.20;;
51814;SDS011;37874;53.158;6.766;2022-12-07T15:58:33;3.80;;;2.10;;
51814;SDS011;37874;53.158;6.766;2022-12-07T16:00:59;3.10;;;1.80;;
51814;SDS011;37874;53.158;6.766;2022-12-07T16:03:24;5.57;;;1.52;;
51814;SDS011;37874;53.158;6.766;2022-12-07T16:05:52;3.13;;;1.67;;
51814;SDS011;37874;53.158;6.766;2022-12-07T16:08:18;3.83;;;1.60;;
51814;SDS011;37874;53.158;6.766;2022-12-07T16:10:44;2.95;;;1.55;;
51814;SDS011;37874;53.158;6.766;2022-12-07T16:13:10;2.58;;;1.60;;
51814;SDS011;37874;53.158;6.766;2022-12-07T16:15:39;4.53;;;1.80;;
51814;SDS011;37874;53.158;6.766;2022-12-07T16:18:06;2.88;;;1.60;;
51814;SDS011;37874;53.158;6.766;2022-12-07T16:20:31;4.60;;;1.70;;
51814;SDS011;37874;53.158;6.766;2022-12-07T16:22:57;2.70;;;1.70;;
51814;SDS011;37874;53.158;6.766;2022-12-07T16:25:23;4.68;;;1.50;;
51814;SDS011;37874;53.158;6.766;2022-12-07T16:27:49;3.45;;;1.50;;
51814;SDS011;37874;53.158;6.766;2022-12-07T16:30:16;3.42;;;1.80;;
51814;SDS011;37874;53.158;6.766;2022-12-07T16:32:42;2.33;;;1.40;;
51814;SDS011;37874;53.158;6.766;2022-12-07T16:35:08;2.90;;;1.40;;
51814;SDS011;37874;53.158;6.766;2022-12-07T16:37:34;2.75;;;1.50;;
51814;SDS011;37874;53.158;6.766;2022-12-07T16:40:00;4.82;;;1.70;;
51814;SDS011;37874;53.158;6.766;2022-12-07T16:42:25;2.63;;;1.48;;
51814;SDS011;37874;53.158;6.766;2022-12-07T16:44:52;3.83;;;1.50;;
51814;SDS011;37874;53.158;6.766;2022-12-07T16:47:17;3.72;;;1.75;;
51814;SDS011;37874;53.158;6.766;2022-12-07T16:49:43;2.88;;;1.48;;
51814;SDS011;37874;53.158;6.766;2022-12-07T16:52:09;3.38;;;1.40;;
51814;SDS011;37874;53.158;6.766;2022-12-07T16:54:35;2.65;;;1.40;;
51814;SDS011;37874;53.158;6.766;2022-12-07T16:57:01;4.07;;;1.63;;
51814;SDS011;37874;53.158;6.766;2022-12-07T16:59:26;2.70;;;1.40;;
51814;SDS011;37874;53.158;6.766;2022-12-07T17:01:52;2.70;;;1.33;;
51814;SDS011;37874;53.158;6.766;2022-12-07T17:04:21;3.30;;;1.40;;
51814;SDS011;37874;53.158;6.766;2022-12-07T17:06:46;2.78;;;1.10;;
51814;SDS011;37874;53.158;6.766;2022-12-07T17:09:12;2.13;;;1.15;;
51814;SDS011;37874;53.158;6.766;2022-12-07T17:11:42;2.50;;;1.20;;
51814;SDS011;37874;53.158;6.766;2022-12-07T17:14:09;2.92;;;1.20;;
51814;SDS011;37874;53.158;6.766;2022-12-07T17:16:53;3.63;;;1.50;;
51814;SDS011;37874;53.158;6.766;2022-12-07T17:19:19;5.97;;;1.42;;
51814;SDS011;37874;53.158;6.766;2022-12-07T17:21:45;2.95;;;1.20;;
51814;SDS011;37874;53.158;6.766;2022-12-07T17:24:12;3.15;;;1.30;;
51814;SDS011;37874;53.158;6.766;2022-12-07T17:26:41;2.17;;;1.10;;
51814;SDS011;37874;53.158;6.766;2022-12-07T17:29:07;2.95;;;1.30;;
51814;SDS011;37874;53.158;6.766;2022-12-07T17:31:35;2.35;;;1.25;;
51814;SDS011;37874;53.158;6.766;2022-12-07T17:34:01;2.75;;;1.10;;
51814;SDS011;37874;53.158;6.766;2022-12-07T17:36:28;2.75;;;1.40;;
51814;SDS011;37874;53.158;6.766;2022-12-07T17:38:54;3.03;;;1.38;;
51814;SDS011;37874;53.158;6.766;2022-12-07T17:41:24;3.72;;;1.30;;
51814;SDS011;37874;53.158;6.766;2022-12-07T17:44:14;2.72;;;1.25;;
51814;SDS011;37874;53.158;6.766;2022-12-07T17:46:41;4.32;;;1.50;;
51814;SDS011;37874;53.158;6.766;2022-12-07T17:49:07;7.75;;;1.60;;
51814;SDS011;37874;53.158;6.766;2022-12-07T17:51:34;5.78;;;1.52;;
51814;SDS011;37874;53.158;6.766;2022-12-07T17:54:18;5.40;;;1.90;;
51814;SDS011;37874;53.158;6.766;2022-12-07T17:56:44;6.40;;;3.72;;
51814;SDS011;37874;53.158;6.766;2022-12-07T17:59:10;4.13;;;1.70;;
51814;SDS011;37874;53.158;6.766;2022-12-07T18:01:36;3.42;;;1.60;;
51814;SDS011;37874;53.158;6.766;2022-12-07T18:04:02;4.10;;;1.75;;
51814;SDS011;37874;53.158;6.766;2022-12-07T18:06:28;2.75;;;1.45;;
51814;SDS011;37874;53.158;6.766;2022-12-07T18:08:54;3.55;;;1.40;;
51814;SDS011;37874;53.158;6.766;2022-12-07T18:11:20;3.00;;;1.50;;
51814;SDS011;37874;53.158;6.766;2022-12-07T18:13:45;6.95;;;1.48;;
51814;SDS011;37874;53.158;6.766;2022-12-07T20:14:02;3.00;;;1.70;;
51814;SDS011;37874;53.158;6.766;2022-12-07T20:16:30;2.58;;;1.70;;
51814;SDS011;37874;53.158;6.766;2022-12-07T20:18:56;3.10;;;1.67;;
51814;SDS011;37874;53.158;6.766;2022-12-07T20:21:23;2.50;;;1.45;;
51814;SDS011;37874;53.158;6.766;2022-12-07T20:23:49;3.08;;;1.80;;
51814;SDS011;37874;53.158;6.766;2022-12-07T20:26:15;3.38;;;2.10;;
51814;SDS011;37874;53.158;6.766;2022-12-07T20:28:40;3.50;;;2.03;;
51814;SDS011;37874;53.158;6.766;2022-12-07T20:31:09;3.70;;;2.00;;
51814;SDS011;37874;53.158;6.766;2022-12-07T20:33:39;3.33;;;1.77;;
51814;SDS011;37874;53.158;6.766;2022-12-07T20:36:05;3.67;;;1.75;;
51814;SDS011;37874;53.158;6.766;2022-12-07T20:38:32;3.83;;;1.92;;
51814;SDS011;37874;53.158;6.766;2022-12-07T20:40:59;3.67;;;2.00;;
51814;SDS011;37874;53.158;6.766;2022-12-07T20:43:27;3.10;;;1.75;;
51814;SDS011;37874;53.158;6.766;2022-12-07T20:45:53;3.63;;;1.95;;
51814;SDS011;37874;53.158;6.766;2022-12-07T20:48:19;3.30;;;2.00;;
51814;SDS011;37874;53.158;6.766;2022-12-07T20:50:45;3.53;;;1.63;;
51814;SDS011;37874;53.158;6.766;2022-12-07T20:53:10;4.40;;;1.70;;
51814;SDS011;37874;53.158;6.766;2022-12-07T20:55:36;2.70;;;1.50;;
51814;SDS011;37874;53.158;6.766;2022-12-07T20:58:03;4.65;;;1.80;;
51814;SDS011;37874;53.158;6.766;2022-12-07T21:00:28;4.07;;;1.80;;